Todos
Willow Point Airport (Our Town, AL) AL71 Condições meteorológicas
There is no TAF data available at AL71 or any nearby airports.
There is no METAR data available at AL71. Showing METAR data for KALX (8 mi N).
Histórico recente de METAR ALX (sem dados para AL71)
| Date | Time (CDT) | Flight Rules | Wind Dir. | Speed | Type | Height AGL (ft) | Visibility | Temp (°C) | Temp (°F) | Dew Point (°C) | Dew Point (°F) | Rel. Humid. | Pressure | Density Altitude | Remarks |
|---|---|---|---|---|---|---|---|---|---|---|---|---|---|---|---|
| 06-Set | 08:55 | VFR | Variable | 1 kt | 10 miles | 28° | 82° | 25° | 77° | 84% | 29.93 in Hg | 2.235 ft | |||
| 06-Set | 08:15 | VFR | Calm | 10 miles | 26° | 78° | 24° | 75° | 89% | 29.93 in Hg | 1.995 ft | ||||
| 06-Set | 07:55 | VFR | 250° | 3 kt | 10 miles | 26° | 78° | 24° | 75° | 89% | 29.93 in Hg | 1.995 ft | |||
| 06-Set | 07:35 | VFR | 200° | 3 kt | 10 miles | 25° | 77° | 24° | 75° | 94% | 29.93 in Hg | 1.875 ft | |||
| 06-Set | 07:15 | VFR | 220° | 2 kt | 10 miles | 25° | 77° | 24° | 75° | 94% | 29.93 in Hg | 1.875 ft | |||
| 06-Set | 06:55 | VFR | 340° | 1 kt | 10 miles | 25° | 77° | 24° | 75° | 94% | 29.92 in Hg | 1.885 ft | |||
| 06-Set | 06:35 | VFR | 290° | 3 kt | 10 miles | 24° | 75° | 24° | 75° | 100% | 29.93 in Hg | 1.755 ft | |||
| 06-Set | 06:15 | VFR | 320° | 4 kt | 10 miles | 24° | 75° | 24° | 75° | 100% | 29.92 in Hg | 1.765 ft | |||
| 06-Set | 05:55 | VFR | 320° | 3 kt | 10 miles | 24° | 75° | 24° | 75° | 100% | 29.92 in Hg | 1.765 ft | |||
| 06-Set | 05:35 | VFR | 10° | 3 kt | 10 miles | 24° | 75° | 24° | 75° | 100% | 29.93 in Hg | 1.755 ft | |||
| 06-Set | 05:15 | VFR | Calm | 10 miles | 23° | 73° | 23° | 73° | 100% | 29.92 in Hg | 1.645 ft | ||||
| 06-Set | 04:55 | VFR | Calm | 10 miles | 23° | 73° | 23° | 73° | 100% | 29.91 in Hg | 1.655 ft | ||||
| 06-Set | 04:15 | VFR | 320° | 2 kt | 10 miles | 24° | 75° | 24° | 75° | 100% | 29.90 in Hg | 1.785 ft | |||
| 06-Set | 03:55 | VFR | 280° | 2 kt | 10 miles | 24° | 75° | 24° | 75° | 100% | 29.90 in Hg | 1.785 ft | |||
| 06-Set | 03:35 | VFR | Calm | 10 miles | 24° | 75° | 24° | 75° | 100% | 29.90 in Hg | 1.785 ft | ||||
| 06-Set | 03:15 | VFR | 300° | 3 kt | 10 miles | 24° | 75° | 24° | 75° | 100% | 29.90 in Hg | 1.785 ft | |||
| 06-Set | 02:55 | VFR | 220° | 3 kt | 10 miles | 24° | 75° | 24° | 75° | 100% | 29.91 in Hg | 1.775 ft | |||
| 06-Set | 02:35 | VFR | 220° | 1 kt | 10 miles | 24° | 75° | 24° | 75° | 100% | 29.90 in Hg | 1.785 ft | |||
| 06-Set | 02:15 | VFR | Variable | 1 kt | 10 miles | 24° | 75° | 24° | 75° | 100% | 29.90 in Hg | 1.785 ft | |||
| 06-Set | 01:55 | VFR | 40° | 1 kt | 10 miles | 25° | 77° | 24° | 75° | 94% | 29.90 in Hg | 1.905 ft | |||
| 06-Set | 01:35 | VFR | 20° | 3 kt | 10 miles | 25° | 77° | 24° | 75° | 94% | 29.91 in Hg | 1.895 ft | |||
| 06-Set | 01:15 | VFR | 320° | 1 kt | 10 miles | 25° | 77° | 24° | 75° | 94% | 29.91 in Hg | 1.895 ft | |||
| 06-Set | 00:55 | VFR | 300° | 2 kt | 10 miles | 25° | 77° | 24° | 75° | 94% | 29.92 in Hg | 1.885 ft | |||
| 06-Set | 00:35 | VFR | 300° | 2 kt | 10 miles | 25° | 77° | 24° | 75° | 94% | 29.92 in Hg | 1.885 ft |
Entrar
| Seu navegador não suporta. atualize seu navegador |
